sensor_id;sensor_type;location;lat;lon;timestamp;pressure;altitude;pressure_sealevel;temperature;humidity
15568;BME280;7885;42.596;23.044;2024-01-16T00:00:39;91457.44;;;6.05;100.00
15568;BME280;7885;42.596;23.044;2024-01-16T00:03:06;91468.94;;;6.13;100.00
15568;BME280;7885;42.596;23.044;2024-01-16T00:05:32;91470.50;;;6.10;100.00
15568;BME280;7885;42.596;23.044;2024-01-16T00:08:00;91429.88;;;5.80;100.00
15568;BME280;7885;42.596;23.044;2024-01-16T00:10:27;91435.25;;;5.87;100.00
15568;BME280;7885;42.596;23.044;2024-01-16T00:12:54;91477.81;;;6.13;100.00
15568;BME280;7885;42.596;23.044;2024-01-16T00:15:20;91483.91;;;6.17;100.00
15568;BME280;7885;42.596;23.044;2024-01-16T00:17:47;91482.03;;;6.14;100.00
15568;BME280;7885;42.596;23.044;2024-01-16T00:20:14;91477.34;;;6.18;100.00
15568;BME280;7885;42.596;23.044;2024-01-16T00:22:41;91489.69;;;6.19;100.00
15568;BME280;7885;42.596;23.044;2024-01-16T00:25:09;91488.84;;;6.26;100.00
15568;BME280;7885;42.596;23.044;2024-01-16T00:27:37;91510.16;;;6.20;100.00
15568;BME280;7885;42.596;23.044;2024-01-16T00:30:04;91432.97;;;5.82;100.00
15568;BME280;7885;42.596;23.044;2024-01-16T00:32:32;91468.53;;;6.14;100.00
15568;BME280;7885;42.596;23.044;2024-01-16T00:34:58;91464.41;;;6.02;100.00
15568;BME280;7885;42.596;23.044;2024-01-16T00:37:25;91487.34;;;6.21;100.00
15568;BME280;7885;42.596;23.044;2024-01-16T00:39:51;91461.91;;;6.19;100.00
15568;BME280;7885;42.596;23.044;2024-01-16T00:42:20;91481.19;;;6.21;100.00
15568;BME280;7885;42.596;23.044;2024-01-16T00:44:46;91499.78;;;6.15;100.00
15568;BME280;7885;42.596;23.044;2024-01-16T00:47:12;91497.41;;;6.17;100.00
15568;BME280;7885;42.596;23.044;2024-01-16T00:49:39;91481.31;;;6.10;100.00
15568;BME280;7885;42.596;23.044;2024-01-16T00:52:05;91440.81;;;5.66;100.00
15568;BME280;7885;42.596;23.044;2024-01-16T00:54:33;91487.56;;;6.00;100.00
15568;BME280;7885;42.596;23.044;2024-01-16T00:56:59;91470.13;;;6.08;100.00
15568;BME280;7885;42.596;23.044;2024-01-16T00:59:27;91511.44;;;6.05;100.00
15568;BME280;7885;42.596;23.044;2024-01-16T01:01:54;91518.34;;;6.09;100.00
15568;BME280;7885;42.596;23.044;2024-01-16T01:04:20;91528.31;;;6.16;100.00
15568;BME280;7885;42.596;23.044;2024-01-16T01:06:47;91524.81;;;6.19;100.00
15568;BME280;7885;42.596;23.044;2024-01-16T01:09:14;91512.13;;;6.16;100.00
15568;BME280;7885;42.596;23.044;2024-01-16T01:11:41;91514.75;;;6.23;100.00
15568;BME280;7885;42.596;23.044;2024-01-16T01:14:07;91530.50;;;6.28;100.00
15568;BME280;7885;42.596;23.044;2024-01-16T01:16:36;91529.31;;;6.33;100.00
15568;BME280;7885;42.596;23.044;2024-01-16T01:19:02;91509.63;;;6.32;100.00
15568;BME280;7885;42.596;23.044;2024-01-16T01:21:29;91502.34;;;6.29;100.00
15568;BME280;7885;42.596;23.044;2024-01-16T01:23:56;91505.88;;;6.23;100.00
15568;BME280;7885;42.596;23.044;2024-01-16T01:26:23;91511.03;;;6.10;100.00
15568;BME280;7885;42.596;23.044;2024-01-16T01:28:49;91513.63;;;6.17;100.00
15568;BME280;7885;42.596;23.044;2024-01-16T01:31:16;91523.72;;;6.13;100.00
15568;BME280;7885;42.596;23.044;2024-01-16T01:33:44;91473.81;;;5.87;100.00
15568;BME280;7885;42.596;23.044;2024-01-16T01:36:11;91516.75;;;6.16;100.00
15568;BME280;7885;42.596;23.044;2024-01-16T01:38:38;91512.50;;;6.15;100.00
15568;BME280;7885;42.596;23.044;2024-01-16T01:41:05;91502.19;;;6.06;100.00
15568;BME280;7885;42.596;23.044;2024-01-16T01:43:31;91513.63;;;6.17;100.00
15568;BME280;7885;42.596;23.044;2024-01-16T01:46:09;91495.75;;;5.93;100.00
15568;BME280;7885;42.596;23.044;2024-01-16T01:48:42;91507.66;;;5.99;100.00
15568;BME280;7885;42.596;23.044;2024-01-16T01:51:16;91506.81;;;6.05;100.00
15568;BME280;7885;42.596;23.044;2024-01-16T01:53:44;91503.69;;;6.07;100.00
15568;BME280;7885;42.596;23.044;2024-01-16T01:56:14;91473.00;;;5.90;100.00
15568;BME280;7885;42.596;23.044;2024-01-16T01:58:43;91492.50;;;6.08;100.00
15568;BME280;7885;42.596;23.044;2024-01-16T02:01:11;91479.91;;;5.95;100.00
15568;BME280;7885;42.596;23.044;2024-01-16T02:03:41;91498.03;;;5.94;100.00
15568;BME280;7885;42.596;23.044;2024-01-16T02:06:09;91494.34;;;5.74;100.00
15568;BME280;7885;42.596;23.044;2024-01-16T02:08:38;91514.94;;;6.02;100.00
15568;BME280;7885;42.596;23.044;2024-01-16T02:11:06;91520.34;;;6.02;100.00
15568;BME280;7885;42.596;23.044;2024-01-16T02:13:33;91555.69;;;6.18;100.00
15568;BME280;7885;42.596;23.044;2024-01-16T02:16:00;91559.16;;;6.19;100.00
15568;BME280;7885;42.596;23.044;2024-01-16T02:18:26;91558.72;;;6.27;100.00
15568;BME280;7885;42.596;23.044;2024-01-16T02:20:54;91552.53;;;6.27;100.00
15568;BME280;7885;42.596;23.044;2024-01-16T02:23:27;91562.56;;;6.26;100.00
15568;BME280;7885;42.596;23.044;2024-01-16T02:25:54;91422.53;;;5.39;100.00
15568;BME280;7885;42.596;23.044;2024-01-16T02:28:21;91550.53;;;6.34;100.00
15568;BME280;7885;42.596;23.044;2024-01-16T02:30:47;91560.53;;;6.37;100.00
15568;BME280;7885;42.596;23.044;2024-01-16T02:33:14;91585.22;;;6.39;100.00
15568;BME280;7885;42.596;23.044;2024-01-16T02:35:41;91547.09;;;6.30;100.00
15568;BME280;7885;42.596;23.044;2024-01-16T02:38:07;91555.84;;;6.41;100.00
15568;BME280;7885;42.596;23.044;2024-01-16T02:40:35;91565.47;;;6.46;100.00
15568;BME280;7885;42.596;23.044;2024-01-16T02:43:02;91580.47;;;6.50;100.00
15568;BME280;7885;42.596;23.044;2024-01-16T02:45:29;91558.19;;;6.39;100.00
15568;BME280;7885;42.596;23.044;2024-01-16T02:47:56;91579.28;;;6.55;100.00
15568;BME280;7885;42.596;23.044;2024-01-16T02:50:22;91525.19;;;6.18;100.00
15568;BME280;7885;42.596;23.044;2024-01-16T02:52:49;91545.13;;;6.34;100.00
15568;BME280;7885;42.596;23.044;2024-01-16T02:55:16;91603.03;;;6.71;100.00
15568;BME280;7885;42.596;23.044;2024-01-16T02:57:44;91599.97;;;6.72;100.00
15568;BME280;7885;42.596;23.044;2024-01-16T03:00:11;91602.25;;;6.74;100.00
15568;BME280;7885;42.596;23.044;2024-01-16T03:02:39;91609.63;;;6.70;100.00
15568;BME280;7885;42.596;23.044;2024-01-16T03:05:06;91505.81;;;5.89;100.00
15568;BME280;7885;42.596;23.044;2024-01-16T03:07:33;91627.41;;;6.67;100.00
15568;BME280;7885;42.596;23.044;2024-01-16T03:10:00;91636.72;;;6.63;100.00
15568;BME280;7885;42.596;23.044;2024-01-16T03:12:26;91617.63;;;6.39;100.00
15568;BME280;7885;42.596;23.044;2024-01-16T03:14:54;91662.66;;;6.56;100.00
15568;BME280;7885;42.596;23.044;2024-01-16T03:17:21;91657.72;;;6.48;100.00
15568;BME280;7885;42.596;23.044;2024-01-16T03:19:48;91667.72;;;6.51;100.00
15568;BME280;7885;42.596;23.044;2024-01-16T03:22:14;91675.41;;;6.52;100.00
15568;BME280;7885;42.596;23.044;2024-01-16T03:24:41;91670.50;;;6.40;100.00
15568;BME280;7885;42.596;23.044;2024-01-16T03:27:08;91687.53;;;6.37;100.00
15568;BME280;7885;42.596;23.044;2024-01-16T03:29:35;91675.63;;;6.24;100.00
15568;BME280;7885;42.596;23.044;2024-01-16T03:32:03;91675.28;;;6.22;100.00
15568;BME280;7885;42.596;23.044;2024-01-16T03:34:30;91710.28;;;6.36;100.00
15568;BME280;7885;42.596;23.044;2024-01-16T03:36:57;91713.34;;;6.38;100.00
15568;BME280;7885;42.596;23.044;2024-01-16T03:39:24;91716.50;;;6.33;100.00
15568;BME280;7885;42.596;23.044;2024-01-16T03:41:51;91725.75;;;6.32;100.00
15568;BME280;7885;42.596;23.044;2024-01-16T03:44:17;91727.72;;;6.28;100.00
15568;BME280;7885;42.596;23.044;2024-01-16T03:46:44;91737.41;;;6.22;100.00
15568;BME280;7885;42.596;23.044;2024-01-16T03:49:12;91744.75;;;6.18;100.00
15568;BME280;7885;42.596;23.044;2024-01-16T03:51:39;91747.50;;;6.11;100.00
15568;BME280;7885;42.596;23.044;2024-01-16T03:54:08;91755.28;;;6.02;100.00
15568;BME280;7885;42.596;23.044;2024-01-16T03:56:34;91760.69;;;5.98;100.00
15568;BME280;7885;42.596;23.044;2024-01-16T03:59:01;91780.75;;;5.94;100.00
15568;BME280;7885;42.596;23.044;2024-01-16T04:01:32;91773.09;;;5.89;100.00
15568;BME280;7885;42.596;23.044;2024-01-16T04:03:59;91730.03;;;5.50;100.00
15568;BME280;7885;42.596;23.044;2024-01-16T04:06:28;91786.59;;;5.82;100.00
15568;BME280;7885;42.596;23.044;2024-01-16T04:08:55;91792.34;;;5.84;100.00
15568;BME280;7885;42.596;23.044;2024-01-16T04:11:22;91760.84;;;5.56;100.00
15568;BME280;7885;42.596;23.044;2024-01-16T04:13:48;91795.09;;;5.70;100.00
15568;BME280;7885;42.596;23.044;2024-01-16T04:16:16;91806.25;;;5.79;100.00
15568;BME280;7885;42.596;23.044;2024-01-16T04:18:43;91744.69;;;5.38;100.00
15568;BME280;7885;42.596;23.044;2024-01-16T04:21:10;91797.78;;;5.73;100.00
15568;BME280;7885;42.596;23.044;2024-01-16T04:23:38;91782.84;;;5.51;100.00
15568;BME280;7885;42.596;23.044;2024-01-16T04:26:04;91810.53;;;5.58;100.00
15568;BME280;7885;42.596;23.044;2024-01-16T04:28:32;91814.78;;;5.56;100.00
15568;BME280;7885;42.596;23.044;2024-01-16T04:34:19;91838.69;;;5.61;100.00
15568;BME280;7885;42.596;23.044;2024-01-16T04:36:46;91847.56;;;5.62;100.00
15568;BME280;7885;42.596;23.044;2024-01-16T04:39:14;91854.13;;;5.60;100.00
15568;BME280;7885;42.596;23.044;2024-01-16T04:41:41;91857.19;;;5.55;100.00
15568;BME280;7885;42.596;23.044;2024-01-16T04:44:07;91866.09;;;5.35;100.00
15568;BME280;7885;42.596;23.044;2024-01-16T04:46:34;91863.03;;;5.22;100.00
15568;BME280;7885;42.596;23.044;2024-01-16T04:49:01;91802.19;;;4.79;100.00
15568;BME280;7885;42.596;23.044;2024-01-16T04:51:27;91871.50;;;5.21;100.00
15568;BME280;7885;42.596;23.044;2024-01-16T04:53:54;91881.13;;;5.22;100.00
15568;BME280;7885;42.596;23.044;2024-01-16T04:56:22;91875.38;;;5.16;100.00
15568;BME280;7885;42.596;23.044;2024-01-16T04:58:49;91895.78;;;5.17;100.00
15568;BME280;7885;42.596;23.044;2024-01-16T05:01:17;91899.63;;;5.16;100.00
15568;BME280;7885;42.596;23.044;2024-01-16T05:03:44;91914.25;;;5.12;100.00
15568;BME280;7885;42.596;23.044;2024-01-16T05:06:14;91906.56;;;5.03;100.00
15568;BME280;7885;42.596;23.044;2024-01-16T05:08:41;91912.69;;;5.00;100.00
15568;BME280;7885;42.596;23.044;2024-01-16T05:11:07;91921.94;;;4.85;100.00
15568;BME280;7885;42.596;23.044;2024-01-16T05:13:35;91871.06;;;4.48;100.00
15568;BME280;7885;42.596;23.044;2024-01-16T05:16:02;91959.72;;;4.99;100.00
15568;BME280;7885;42.596;23.044;2024-01-16T05:18:29;91958.16;;;4.98;100.00
15568;BME280;7885;42.596;23.044;2024-01-16T05:20:57;91929.25;;;4.81;100.00
15568;BME280;7885;42.596;23.044;2024-01-16T05:23:24;91934.28;;;4.86;100.00
15568;BME280;7885;42.596;23.044;2024-01-16T05:25:51;91963.56;;;5.05;100.00
15568;BME280;7885;42.596;23.044;2024-01-16T05:28:18;91894.13;;;4.42;100.00
15568;BME280;7885;42.596;23.044;2024-01-16T05:30:46;91978.53;;;4.78;100.00
15568;BME280;7885;42.596;23.044;2024-01-16T05:33:12;91982.31;;;4.63;100.00
15568;BME280;7885;42.596;23.044;2024-01-16T05:35:39;92004.25;;;4.57;100.00
15568;BME280;7885;42.596;23.044;2024-01-16T05:41:31;91970.97;;;4.18;100.00
15568;BME280;7885;42.596;23.044;2024-01-16T05:43:58;92028.03;;;4.41;100.00
15568;BME280;7885;42.596;23.044;2024-01-16T05:46:27;91981.53;;;3.83;100.00
15568;BME280;7885;42.596;23.044;2024-01-16T05:48:54;92053.22;;;4.08;100.00
15568;BME280;7885;42.596;23.044;2024-01-16T05:51:20;92052.47;;;4.08;100.00
15568;BME280;7885;42.596;23.044;2024-01-16T05:53:47;92062.41;;;4.04;100.00
15568;BME280;7885;42.596;23.044;2024-01-16T05:56:14;92067.44;;;4.05;100.00
15568;BME280;7885;42.596;23.044;2024-01-16T05:58:40;92070.84;;;3.99;100.00
15568;BME280;7885;42.596;23.044;2024-01-16T06:01:07;92085.44;;;3.94;100.00
15568;BME280;7885;42.596;23.044;2024-01-16T06:03:35;92082.00;;;3.97;100.00
15568;BME280;7885;42.596;23.044;2024-01-16T06:06:02;91959.88;;;3.14;100.00
15568;BME280;7885;42.596;23.044;2024-01-16T06:08:28;92101.59;;;3.98;100.00
15568;BME280;7885;42.596;23.044;2024-01-16T06:10:55;92107.72;;;3.91;100.00
15568;BME280;7885;42.596;23.044;2024-01-16T06:13:22;92122.28;;;3.87;100.00
15568;BME280;7885;42.596;23.044;2024-01-16T06:15:49;92124.44;;;3.71;100.00
15568;BME280;7885;42.596;23.044;2024-01-16T06:18:15;92109.72;;;3.58;100.00
15568;BME280;7885;42.596;23.044;2024-01-16T06:20:43;92145.59;;;3.69;100.00
15568;BME280;7885;42.596;23.044;2024-01-16T06:23:10;92152.09;;;3.68;100.00
15568;BME280;7885;42.596;23.044;2024-01-16T06:25:37;92150.53;;;3.67;100.00
15568;BME280;7885;42.596;23.044;2024-01-16T06:28:03;92164.72;;;3.64;100.00
15568;BME280;7885;42.596;23.044;2024-01-16T06:30:30;92173.97;;;3.66;100.00
15568;BME280;7885;42.596;23.044;2024-01-16T06:32:57;92171.25;;;3.63;100.00
15568;BME280;7885;42.596;23.044;2024-01-16T06:35:24;92188.63;;;3.69;100.00
15568;BME280;7885;42.596;23.044;2024-01-16T06:37:52;92195.97;;;3.72;100.00
15568;BME280;7885;42.596;23.044;2024-01-16T06:40:18;92189.84;;;3.75;100.00
15568;BME280;7885;42.596;23.044;2024-01-16T06:42:46;92186.00;;;3.76;100.00
15568;BME280;7885;42.596;23.044;2024-01-16T06:45:13;92180.97;;;3.74;100.00
15568;BME280;7885;42.596;23.044;2024-01-16T06:47:41;92192.09;;;3.73;100.00
15568;BME280;7885;42.596;23.044;2024-01-16T06:50:08;92195.22;;;3.75;100.00
15568;BME280;7885;42.596;23.044;2024-01-16T06:52:34;92187.38;;;3.63;100.00
15568;BME280;7885;42.596;23.044;2024-01-16T06:55:03;92212.09;;;3.72;100.00
15568;BME280;7885;42.596;23.044;2024-01-16T06:57:30;92200.41;;;3.57;100.00
15568;BME280;7885;42.596;23.044;2024-01-16T06:59:56;92120.69;;;3.05;100.00
15568;BME280;7885;42.596;23.044;2024-01-16T07:02:23;92230.44;;;3.63;100.00
15568;BME280;7885;42.596;23.044;2024-01-16T07:04:51;92195.47;;;3.29;100.00
15568;BME280;7885;42.596;23.044;2024-01-16T07:07:18;92198.09;;;3.22;100.00
15568;BME280;7885;42.596;23.044;2024-01-16T07:09:45;92173.81;;;3.15;100.00
15568;BME280;7885;42.596;23.044;2024-01-16T07:12:13;92263.78;;;3.54;100.00
15568;BME280;7885;42.596;23.044;2024-01-16T07:14:40;92268.91;;;3.33;100.00
15568;BME280;7885;42.596;23.044;2024-01-16T07:17:07;92266.84;;;3.23;100.00
15568;BME280;7885;42.596;23.044;2024-01-16T07:19:34;92284.44;;;3.17;100.00
15568;BME280;7885;42.596;23.044;2024-01-16T07:22:00;92284.44;;;3.17;100.00
15568;BME280;7885;42.596;23.044;2024-01-16T07:24:27;92295.91;;;3.14;100.00
15568;BME280;7885;42.596;23.044;2024-01-16T07:26:54;92298.34;;;3.23;100.00
15568;BME280;7885;42.596;23.044;2024-01-16T07:29:22;92317.94;;;3.23;99.21
15568;BME280;7885;42.596;23.044;2024-01-16T07:31:49;92320.69;;;3.27;99.30
15568;BME280;7885;42.596;23.044;2024-01-16T07:34:15;92309.81;;;3.20;97.59
15568;BME280;7885;42.596;23.044;2024-01-16T07:36:46;92330.66;;;3.26;97.71
15568;BME280;7885;42.596;23.044;2024-01-16T07:39:14;92312.91;;;3.22;96.51
15568;BME280;7885;42.596;23.044;2024-01-16T07:41:41;92293.53;;;3.09;95.95
15568;BME280;7885;42.596;23.044;2024-01-16T07:44:07;92311.97;;;3.11;95.69
15568;BME280;7885;42.596;23.044;2024-01-16T07:46:35;92345.66;;;3.27;95.00
15568;BME280;7885;42.596;23.044;2024-01-16T07:49:02;92351.31;;;3.22;94.94
15568;BME280;7885;42.596;23.044;2024-01-16T07:51:29;92359.81;;;3.24;94.27
15568;BME280;7885;42.596;23.044;2024-01-16T07:54:04;92358.63;;;3.22;95.53
15568;BME280;7885;42.596;23.044;2024-01-16T07:56:32;92335.88;;;3.16;95.30
15568;BME280;7885;42.596;23.044;2024-01-16T07:58:58;92356.91;;;3.36;95.39
15568;BME280;7885;42.596;23.044;2024-01-16T08:01:25;92338.72;;;3.26;94.70
15568;BME280;7885;42.596;23.044;2024-01-16T08:03:53;92354.28;;;3.40;95.40
15568;BME280;7885;42.596;23.044;2024-01-16T08:06:20;92371.78;;;3.56;96.28
15568;BME280;7885;42.596;23.044;2024-01-16T08:08:47;92366.78;;;3.55;94.58
15568;BME280;7885;42.596;23.044;2024-01-16T08:11:14;92378.84;;;3.65;95.65
15568;BME280;7885;42.596;23.044;2024-01-16T08:13:41;92381.91;;;3.67;93.76
15568;BME280;7885;42.596;23.044;2024-01-16T08:16:07;92356.19;;;3.39;92.56
15568;BME280;7885;42.596;23.044;2024-01-16T08:18:34;92396.78;;;3.57;92.83
15568;BME280;7885;42.596;23.044;2024-01-16T08:21:03;92408.00;;;3.63;94.60
15568;BME280;7885;42.596;23.044;2024-01-16T08:23:29;92403.81;;;3.65;95.20
15568;BME280;7885;42.596;23.044;2024-01-16T08:25:56;92421.94;;;3.68;93.91
15568;BME280;7885;42.596;23.044;2024-01-16T08:28:23;92430.06;;;3.72;92.84
15568;BME280;7885;42.596;23.044;2024-01-16T08:30:50;92439.16;;;3.64;90.88
15568;BME280;7885;42.596;23.044;2024-01-16T08:33:16;92442.63;;;3.64;90.38
15568;BME280;7885;42.596;23.044;2024-01-16T08:35:43;92461.09;;;3.66;90.90
15568;BME280;7885;42.596;23.044;2024-01-16T08:38:11;92449.50;;;3.62;91.55
15568;BME280;7885;42.596;23.044;2024-01-16T08:40:38;92457.31;;;3.70;92.34
15568;BME280;7885;42.596;23.044;2024-01-16T08:43:05;92430.97;;;3.56;92.79
15568;BME280;7885;42.596;23.044;2024-01-16T08:45:31;92454.38;;;3.79;91.95
15568;BME280;7885;42.596;23.044;2024-01-16T08:47:58;92433.22;;;3.51;89.75
15568;BME280;7885;42.596;23.044;2024-01-16T08:50:25;92432.88;;;3.56;91.32
15568;BME280;7885;42.596;23.044;2024-01-16T08:52:52;92452.81;;;3.78;92.02
15568;BME280;7885;42.596;23.044;2024-01-16T08:55:20;92466.78;;;3.87;92.84
15568;BME280;7885;42.596;23.044;2024-01-16T08:57:46;92460.66;;;3.90;91.85
15568;BME280;7885;42.596;23.044;2024-01-16T09:00:14;92456.63;;;3.77;89.33
15568;BME280;7885;42.596;23.044;2024-01-16T09:02:40;92472.94;;;3.87;89.79
15568;BME280;7885;42.596;23.044;2024-01-16T09:05:07;92470.72;;;3.93;90.73
15568;BME280;7885;42.596;23.044;2024-01-16T09:07:34;92468.19;;;4.07;90.76
15568;BME280;7885;42.596;23.044;2024-01-16T09:10:01;92448.59;;;4.06;89.77
15568;BME280;7885;42.596;23.044;2024-01-16T09:12:29;92483.59;;;4.36;88.89
15568;BME280;7885;42.596;23.044;2024-01-16T09:14:55;92500.75;;;4.25;86.38
15568;BME280;7885;42.596;23.044;2024-01-16T09:17:22;92493.50;;;4.29;86.65
15568;BME280;7885;42.596;23.044;2024-01-16T09:19:49;92492.50;;;4.40;87.18
15568;BME280;7885;42.596;23.044;2024-01-16T09:22:17;92487.13;;;4.74;87.76
15568;BME280;7885;42.596;23.044;2024-01-16T09:24:44;92496.06;;;5.18;86.60
15568;BME280;7885;42.596;23.044;2024-01-16T09:27:11;92488.00;;;5.66;84.10
15568;BME280;7885;42.596;23.044;2024-01-16T09:29:40;92487.47;;;5.93;80.96
15568;BME280;7885;42.596;23.044;2024-01-16T09:32:07;92503.47;;;6.20;80.03
15568;BME280;7885;42.596;23.044;2024-01-16T09:34:34;92515.88;;;6.31;78.69
15568;BME280;7885;42.596;23.044;2024-01-16T09:37:01;92516.31;;;6.37;81.17
15568;BME280;7885;42.596;23.044;2024-01-16T09:39:29;92512.41;;;6.27;78.48
15568;BME280;7885;42.596;23.044;2024-01-16T09:41:59;92513.56;;;6.26;80.79
15568;BME280;7885;42.596;23.044;2024-01-16T09:44:27;92504.63;;;6.22;78.42
15568;BME280;7885;42.596;23.044;2024-01-16T09:46:55;92500.47;;;6.35;80.51
15568;BME280;7885;42.596;23.044;2024-01-16T09:49:24;92498.28;;;6.55;78.30
15568;BME280;7885;42.596;23.044;2024-01-16T09:51:51;92463.84;;;6.48;76.74
15568;BME280;7885;42.596;23.044;2024-01-16T09:57:40;92478.84;;;7.68;76.96
15568;BME280;7885;42.596;23.044;2024-01-16T10:00:09;92491.97;;;8.08;74.04
15568;BME280;7885;42.596;23.044;2024-01-16T10:02:39;92492.75;;;7.87;71.06
15568;BME280;7885;42.596;23.044;2024-01-16T10:05:07;92503.59;;;7.59;70.44
15568;BME280;7885;42.596;23.044;2024-01-16T10:07:35;92517.50;;;7.43;72.30
15568;BME280;7885;42.596;23.044;2024-01-16T10:10:04;92515.19;;;7.52;73.58
15568;BME280;7885;42.596;23.044;2024-01-16T10:12:31;92491.97;;;7.76;73.26
15568;BME280;7885;42.596;23.044;2024-01-16T10:14:58;92498.19;;;8.12;73.90
15568;BME280;7885;42.596;23.044;2024-01-16T10:17:35;92501.28;;;8.00;70.77
15568;BME280;7885;42.596;23.044;2024-01-16T10:20:04;92483.84;;;7.73;72.74
15568;BME280;7885;42.596;23.044;2024-01-16T10:22:31;92485.78;;;8.04;72.08
15568;BME280;7885;42.596;23.044;2024-01-16T10:25:04;92502.13;;;9.30;69.95
15568;BME280;7885;42.596;23.044;2024-01-16T10:27:31;92512.59;;;9.90;66.76
15568;BME280;7885;42.596;23.044;2024-01-16T10:29:58;92517.34;;;10.30;66.03
15568;BME280;7885;42.596;23.044;2024-01-16T10:32:27;92492.59;;;10.18;65.06
15568;BME280;7885;42.596;23.044;2024-01-16T10:35:05;92521.13;;;10.81;66.08
15568;BME280;7885;42.596;23.044;2024-01-16T10:37:47;92508.09;;;13.06;58.48
15568;BME280;7885;42.596;23.044;2024-01-16T10:40:17;92500.19;;;13.11;55.01
15568;BME280;7885;42.596;23.044;2024-01-16T10:42:45;92502.94;;;12.45;53.24
15568;BME280;7885;42.596;23.044;2024-01-16T10:45:17;92503.88;;;12.35;57.34
15568;BME280;7885;42.596;23.044;2024-01-16T10:47:45;92458.44;;;12.02;53.84
15568;BME280;7885;42.596;23.044;2024-01-16T10:50:16;92495.00;;;13.17;53.54
15568;BME280;7885;42.596;23.044;2024-01-16T10:52:46;92412.66;;;14.51;50.27
15568;BME280;7885;42.596;23.044;2024-01-16T10:55:19;92468.41;;;15.98;43.44
15568;BME280;7885;42.596;23.044;2024-01-16T10:57:48;92498.50;;;16.64;44.28
15568;BME280;7885;42.596;23.044;2024-01-16T11:00:17;92502.78;;;17.00;41.23
15568;BME280;7885;42.596;23.044;2024-01-16T11:02:49;92493.75;;;17.55;38.73
15568;BME280;7885;42.596;23.044;2024-01-16T11:05:18;92491.41;;;17.66;36.30
15568;BME280;7885;42.596;23.044;2024-01-16T11:07:46;92490.75;;;19.13;35.49
15568;BME280;7885;42.596;23.044;2024-01-16T11:10:13;92494.44;;;19.83;33.66
15568;BME280;7885;42.596;23.044;2024-01-16T11:12:40;92492.13;;;19.17;32.64
15568;BME280;7885;42.596;23.044;2024-01-16T11:15:10;92491.94;;;17.74;32.88
15568;BME280;7885;42.596;23.044;2024-01-16T11:17:38;92481.59;;;16.15;35.87
15568;BME280;7885;42.596;23.044;2024-01-16T11:20:06;92471.66;;;14.69;38.08
15568;BME280;7885;42.596;23.044;2024-01-16T11:22:38;92499.53;;;14.15;42.92
15568;BME280;7885;42.596;23.044;2024-01-16T11:25:08;92499.38;;;12.72;41.57
15568;BME280;7885;42.596;23.044;2024-01-16T11:27:35;92468.19;;;11.19;46.00
15568;BME280;7885;42.596;23.044;2024-01-16T11:30:03;92504.34;;;10.89;50.07
15568;BME280;7885;42.596;23.044;2024-01-16T11:32:34;92503.28;;;11.13;54.15
15568;BME280;7885;42.596;23.044;2024-01-16T11:35:01;92490.63;;;11.30;56.00
15568;BME280;7885;42.596;23.044;2024-01-16T11:37:28;92513.63;;;11.56;52.99
15568;BME280;7885;42.596;23.044;2024-01-16T11:40:24;92501.63;;;11.80;51.77
15568;BME280;7885;42.596;23.044;2024-01-16T11:42:52;92491.25;;;11.72;48.28
15568;BME280;7885;42.596;23.044;2024-01-16T11:45:47;92497.19;;;11.90;51.93
15568;BME280;7885;42.596;23.044;2024-01-16T11:48:16;92505.31;;;11.93;49.83
15568;BME280;7885;42.596;23.044;2024-01-16T11:50:44;92500.28;;;11.92;50.40
15568;BME280;7885;42.596;23.044;2024-01-16T11:53:11;92509.31;;;11.89;49.91
15568;BME280;7885;42.596;23.044;2024-01-16T11:56:20;92513.00;;;11.75;50.40
15568;BME280;7885;42.596;23.044;2024-01-16T11:59:05;92521.38;;;11.57;50.40
15568;BME280;7885;42.596;23.044;2024-01-16T12:01:35;92517.38;;;11.05;50.35
15568;BME280;7885;42.596;23.044;2024-01-16T12:04:03;92527.59;;;10.94;53.71
15568;BME280;7885;42.596;23.044;2024-01-16T12:06:31;92529.72;;;10.76;53.33
15568;BME280;7885;42.596;23.044;2024-01-16T12:09:11;92528.84;;;10.48;54.88
15568;BME280;7885;42.596;23.044;2024-01-16T12:11:40;92507.09;;;9.97;56.22
15568;BME280;7885;42.596;23.044;2024-01-16T12:14:08;92530.09;;;9.85;55.70
15568;BME280;7885;42.596;23.044;2024-01-16T12:16:35;92534.13;;;9.59;58.17
15568;BME280;7885;42.596;23.044;2024-01-16T12:19:05;92508.66;;;9.39;60.65
15568;BME280;7885;42.596;23.044;2024-01-16T12:21:34;92536.13;;;9.52;63.73
15568;BME280;7885;42.596;23.044;2024-01-16T12:24:02;92524.22;;;9.28;61.59
15568;BME280;7885;42.596;23.044;2024-01-16T12:26:29;92542.88;;;9.19;61.73
15568;BME280;7885;42.596;23.044;2024-01-16T12:28:58;92466.75;;;8.53;61.58
15568;BME280;7885;42.596;23.044;2024-01-16T12:31:25;92540.28;;;8.91;60.48
15568;BME280;7885;42.596;23.044;2024-01-16T12:33:52;92408.81;;;7.66;61.29
15568;BME280;7885;42.596;23.044;2024-01-16T12:36:19;92539.22;;;8.39;61.70
15568;BME280;7885;42.596;23.044;2024-01-16T12:38:54;92520.63;;;7.95;63.35
15568;BME280;7885;42.596;23.044;2024-01-16T12:41:20;92541.53;;;8.19;65.13
15568;BME280;7885;42.596;23.044;2024-01-16T12:43:49;92538.06;;;8.43;65.13
15568;BME280;7885;42.596;23.044;2024-01-16T12:46:17;92502.03;;;8.39;63.99
15568;BME280;7885;42.596;23.044;2024-01-16T12:48:44;92530.59;;;8.83;63.85
15568;BME280;7885;42.596;23.044;2024-01-16T12:51:20;92529.00;;;9.03;64.35
15568;BME280;7885;42.596;23.044;2024-01-16T12:53:47;92522.81;;;8.99;63.16
15568;BME280;7885;42.596;23.044;2024-01-16T12:56:18;92473.28;;;8.67;63.17
15568;BME280;7885;42.596;23.044;2024-01-16T12:58:46;92550.72;;;8.99;63.59
15568;BME280;7885;42.596;23.044;2024-01-16T13:01:24;92554.97;;;8.97;65.82
15568;BME280;7885;42.596;23.044;2024-01-16T13:03:51;92546.50;;;8.81;66.43
15568;BME280;7885;42.596;23.044;2024-01-16T13:06:19;92535.34;;;8.50;64.63
15568;BME280;7885;42.596;23.044;2024-01-16T13:08:46;92513.66;;;8.22;65.52
15568;BME280;7885;42.596;23.044;2024-01-16T13:11:13;92537.69;;;8.09;67.60
15568;BME280;7885;42.596;23.044;2024-01-16T13:13:41;92560.88;;;8.14;68.41
15568;BME280;7885;42.596;23.044;2024-01-16T13:16:08;92557.78;;;7.94;69.12